Time;durP1;ratioP1;P1;durP2;ratioP2;P2;SDS_P1;SDS_P2;PMS_P1;PMS_P2;Temp;Humidity;BMP_temperature;BMP_pressure;BME280_temperature;BME280_humidity;BME280_pressure;Samples;Min_cycle;Max_cycle;Signal;HPM_P1;HPM_P2
2022/11/14 00:02:08;;;;;;;21.35;16.70;;;;;;;4.87;100.00;101555.47;10540557;28;20040;-65
2022/11/14 00:07:08;;;;;;;26.45;17.42;;;;;;;4.90;100.00;101555.19;10540559;28;20079;-67
2022/11/14 00:12:09;;;;;;;19.70;17.70;;;;;;;4.80;100.00;101562.41;10540068;28;20120;-66
2022/11/14 00:17:09;;;;;;;26.15;19.13;;;;;;;5.04;100.00;101550.34;10540164;28;20032;-66
2022/11/14 00:22:10;;;;;;;29.13;20.48;;;;;;;5.11;100.00;101554.16;10540088;28;20040;-66
2022/11/14 00:27:11;;;;;;;18.60;16.63;;;;;;;5.09;100.00;101562.34;10538581;28;20046;-66
2022/11/14 00:32:11;;;;;;;22.35;19.15;;;;;;;5.07;100.00;101537.50;10540079;28;20059;-66
2022/11/14 00:37:12;;;;;;;20.45;18.17;;;;;;;5.20;100.00;101547.94;10539764;28;20032;-66
2022/11/14 00:42:12;;;;;;;22.45;19.75;;;;;;;5.27;100.00;101538.28;10539109;28;20529;-66
2022/11/14 00:47:12;;;;;;;26.48;20.05;;;;;;;5.24;100.00;101546.63;10539442;28;20044;-66
2022/11/14 00:52:13;;;;;;;24.10;19.30;;;;;;;5.17;100.00;101547.34;10555844;28;20040;-66
2022/11/14 00:57:13;;;;;;;23.33;18.10;;;;;;;5.08;100.00;101538.34;10539692;28;20030;-66
2022/11/14 01:02:14;;;;;;;19.35;16.80;;;;;;;5.01;100.00;101515.75;10539446;28;20028;-66
2022/11/14 01:07:14;;;;;;;21.45;17.55;;;;;;;5.00;100.00;101506.84;10537980;28;20053;-66
2022/11/14 01:12:14;;;;;;;18.48;15.95;;;;;;;5.03;100.00;101517.28;10539592;28;20039;-66
2022/11/14 01:17:15;;;;;;;19.63;17.52;;;;;;;4.99;100.00;101501.66;10538369;28;20066;-66
2022/11/14 01:22:15;;;;;;;24.52;17.48;;;;;;;4.91;100.00;101499.66;10542873;28;20040;-66
2022/11/14 01:27:15;;;;;;;17.95;15.90;;;;;;;4.87;100.00;101500.97;10545397;28;20391;-66
2022/11/14 01:32:16;;;;;;;19.63;15.45;;;;;;;4.76;100.00;101499.31;10547587;28;20105;-66
2022/11/14 01:37:16;;;;;;;17.63;15.60;;;;;;;4.73;100.00;101491.53;10546855;28;20040;-66
2022/11/14 01:42:17;;;;;;;24.83;17.67;;;;;;;4.69;100.00;101484.78;10561484;28;20059;-66
2022/11/14 01:47:28;;;;;;;20.05;15.48;;;;;;;4.63;100.00;101477.31;10544494;28;20394;-66
2022/11/14 01:52:33;;;;;;;21.05;18.05;;;;;;;4.52;100.00;101456.84;10543778;28;20135;-65
2022/11/14 01:57:36;;;;;;;25.30;16.40;;;;;;;4.56;100.00;101465.44;10544137;28;20463;-65
2022/11/14 02:02:36;;;;;;;21.13;16.73;;;;;;;4.46;100.00;101467.31;10544262;28;20024;-66
2022/11/14 02:07:38;;;;;;;24.25;18.63;;;;;;;4.39;100.00;101454.47;10546081;28;20407;-66
2022/11/14 02:12:38;;;;;;;22.10;17.40;;;;;;;4.30;100.00;101444.59;10526767;28;20032;-65
2022/11/14 02:17:39;;;;;;;24.40;18.85;;;;;;;4.32;100.00;101431.91;10561041;28;20028;-65
2022/11/14 02:22:40;;;;;;;21.33;17.35;;;;;;;4.23;100.00;101419.38;10560731;28;20026;-66
2022/11/14 02:27:41;;;;;;;18.42;16.13;;;;;;;4.23;100.00;101421.22;10543980;28;20036;-66
2022/11/14 02:32:41;;;;;;;18.50;15.98;;;;;;;4.18;100.00;101411.78;10559086;28;20044;-65
2022/11/14 02:37:41;;;;;;;20.90;16.13;;;;;;;4.15;100.00;101403.16;10542535;28;20032;-65
2022/11/14 02:42:42;;;;;;;19.20;17.13;;;;;;;4.17;100.00;101407.38;10543551;28;20032;-70
2022/11/14 02:47:42;;;;;;;21.75;18.23;;;;;;;4.08;100.00;101400.19;10542835;28;20152;-71
2022/11/14 02:52:43;;;;;;;19.00;15.20;;;;;;;4.03;100.00;101390.91;10543172;28;20048;-71
2022/11/14 02:57:43;;;;;;;22.42;17.73;;;;;;;4.00;100.00;101396.56;10541819;28;20035;-70
2022/11/14 03:02:43;;;;;;;24.30;19.02;;;;;;;3.93;100.00;101389.09;10542304;28;20040;-70
2022/11/14 03:07:44;;;;;;;16.35;14.65;;;;;;;3.88;100.00;101387.81;10542644;28;20032;-70
2022/11/14 03:12:44;;;;;;;21.17;17.58;;;;;;;3.86;100.00;101396.00;10543524;28;20160;-70
2022/11/14 03:17:45;;;;;;;19.95;17.38;;;;;;;3.78;100.00;101379.78;10542524;28;20040;-70
2022/11/14 03:22:45;;;;;;;17.27;15.18;;;;;;;3.74;100.00;101378.38;10541900;28;20059;-70
2022/11/14 03:27:45;;;;;;;21.60;17.38;;;;;;;3.70;100.00;101384.97;10541887;28;20036;-71
2022/11/14 03:32:46;;;;;;;16.73;14.32;;;;;;;3.63;100.00;101387.38;10559194;28;20052;-70
2022/11/14 03:37:47;;;;;;;19.48;17.38;;;;;;;3.56;100.00;101385.41;10542097;28;20048;-71
2022/11/14 03:42:48;;;;;;;18.15;16.17;;;;;;;3.49;100.00;101377.09;10541736;28;20119;-70
2022/11/14 03:47:48;;;;;;;19.77;17.42;;;;;;;3.46;100.00;101367.50;10540933;28;20039;-71
2022/11/14 03:52:49;;;;;;;23.73;18.92;;;;;;;3.41;100.00;101361.72;10539739;28;20047;-71
2022/11/14 03:57:49;;;;;;;26.13;18.48;;;;;;;3.40;100.00;101360.03;10523599;28;20040;-71
2022/11/14 04:02:49;;;;;;;24.95;20.77;;;;;;;3.37;100.00;101362.16;10541518;28;20040;-70
2022/11/14 04:07:50;;;;;;;25.73;20.60;;;;;;;3.28;100.00;101358.47;10541576;28;20036;-71
2022/11/14 04:12:51;;;;;;;31.38;21.15;;;;;;;3.27;100.00;101351.44;10556696;28;20437;-70
2022/11/14 04:17:51;;;;;;;25.33;20.40;;;;;;;3.19;100.00;101344.09;10539082;28;20063;-70
2022/11/14 04:22:52;;;;;;;21.00;17.40;;;;;;;3.11;100.00;101343.09;10540094;28;20028;-70
2022/11/14 04:27:52;;;;;;;21.75;17.95;;;;;;;3.05;100.00;101336.47;10540829;28;20036;-71
2022/11/14 04:32:52;;;;;;;24.73;20.10;;;;;;;3.08;100.00;101336.19;10542685;28;20403;-71
2022/11/14 04:37:53;;;;;;;30.67;23.30;;;;;;;3.04;100.00;101332.09;10538557;28;20036;-70
2022/11/14 04:42:53;;;;;;;27.38;20.70;;;;;;;3.02;100.00;101334.91;10539805;28;20032;-70
2022/11/14 04:47:54;;;;;;;26.55;22.23;;;;;;;2.94;100.00;101321.38;10538982;28;20428;-70
2022/11/14 04:52:54;;;;;;;30.95;22.58;;;;;;;2.87;100.00;101317.56;10540497;28;20036;-70
2022/11/14 04:57:55;;;;;;;32.95;22.65;;;;;;;2.83;100.00;101305.44;10544072;28;20109;-71
2022/11/14 05:02:57;;;;;;;25.05;20.98;;;;;;;2.77;100.00;101293.44;10547370;28;20103;-71
2022/11/14 05:07:58;;;;;;;34.20;22.50;;;;;;;2.70;100.00;101283.44;10563241;28;20032;-71
2022/11/14 05:12:58;;;;;;;38.38;22.80;;;;;;;2.70;100.00;101281.63;10563574;28;20036;-71
2022/11/14 05:17:58;;;;;;;32.95;18.17;;;;;;;2.66;100.00;101268.69;10545984;28;20123;-70
2022/11/14 05:22:59;;;;;;;27.90;21.42;;;;;;;2.66;100.00;101277.53;10546660;28;20051;-71
2022/11/14 05:28:00;;;;;;;34.60;23.17;;;;;;;2.62;100.00;101273.44;10546642;28;20047;-70
2022/11/14 05:33:00;;;;;;;32.47;21.13;;;;;;;2.64;100.00;101284.84;10562777;28;20109;-71
2022/11/14 05:38:01;;;;;;;26.55;20.15;;;;;;;2.64;100.00;101292.84;10546096;28;20119;-71
2022/11/14 05:43:01;;;;;;;35.85;24.90;;;;;;;2.59;100.00;101283.56;10546566;28;20028;-76
2022/11/14 05:48:02;;;;;;;30.23;22.27;;;;;;;2.54;100.00;101270.59;10561509;28;20047;-73
2022/11/14 05:53:02;;;;;;;28.85;20.77;;;;;;;2.55;100.00;101278.50;10545071;28;20118;-73
2022/11/14 05:58:03;;;;;;;38.45;21.58;;;;;;;2.61;100.00;101270.91;10560746;28;20028;-73
2022/11/14 06:03:03;;;;;;;42.22;25.95;;;;;;;2.66;100.00;101266.84;10561771;28;20036;-73
2022/11/14 06:08:04;;;;;;;38.35;29.52;;;;;;;2.65;100.00;101269.63;10542538;28;20024;-70
2022/11/14 06:13:04;;;;;;;31.23;23.10;;;;;;;2.58;100.00;101266.66;10544209;28;20115;-71
2022/11/14 06:18:04;;;;;;;40.85;25.63;;;;;;;2.53;100.00;101267.09;10543078;28;20354;-70
2022/11/14 06:23:05;;;;;;;44.80;27.35;;;;;;;2.52;100.00;101270.75;10544228;28;20074;-70
2022/11/14 06:28:05;;;;;;;37.47;27.58;;;;;;;2.55;100.00;101283.84;10542993;28;20467;-70
2022/11/14 06:33:06;;;;;;;38.80;27.63;;;;;;;2.55;100.00;101282.97;10541582;28;20474;-71
2022/11/14 06:38:06;;;;;;;41.70;27.08;;;;;;;2.53;100.00;101275.09;10543966;28;20044;-70
2022/11/14 06:43:06;;;;;;;40.33;27.90;;;;;;;2.48;100.00;101274.66;10543067;28;20048;-71
2022/11/14 06:48:07;;;;;;;35.60;24.15;;;;;;;2.42;100.00;101261.84;10541239;28;20444;-70
2022/11/14 06:53:07;;;;;;;43.67;28.55;;;;;;;2.46;100.00;101257.94;10542500;28;20036;-70
2022/11/14 06:58:08;;;;;;;32.67;24.25;;;;;;;2.45;100.00;101263.41;10542745;28;20038;-70
2022/11/14 07:03:08;;;;;;;41.40;27.40;;;;;;;2.41;100.00;101265.50;10541384;28;20085;-70
2022/11/14 07:08:08;;;;;;;37.53;26.63;;;;;;;2.42;100.00;101252.97;10542594;28;20032;-70
2022/11/14 07:13:10;;;;;;;36.53;26.90;;;;;;;2.48;100.00;101253.28;10542196;28;20119;-71
2022/11/14 07:18:10;;;;;;;44.33;28.13;;;;;;;2.66;100.00;101269.50;10539682;28;20391;-71
2022/11/14 07:23:11;;;;;;;36.92;27.63;;;;;;;2.84;100.00;101263.47;10541716;28;20072;-70
2022/11/14 07:28:11;;;;;;;38.75;25.30;;;;;;;2.95;100.00;101258.03;10540253;28;20467;-70
2022/11/14 07:33:11;;;;;;;41.00;30.05;;;;;;;3.03;100.00;101250.13;10541559;28;20367;-70
2022/11/14 07:38:12;;;;;;;42.55;29.23;;;;;;;3.44;100.00;101246.31;10540981;28;20039;-70
2022/11/14 07:43:12;;;;;;;54.90;31.52;;;;;;;4.01;100.00;101242.81;10541841;28;20052;-71
2022/11/14 07:48:13;;;;;;;43.40;28.58;;;;;;;4.58;100.00;101243.53;10539503;28;20117;-72
2022/11/14 07:53:14;;;;;;;39.22;28.85;;;;;;;5.01;100.00;101244.66;10541703;28;20036;-71
2022/11/14 07:58:15;;;;;;;43.80;28.85;;;;;;;5.40;100.00;101236.31;10539602;28;20024;-71
2022/11/14 08:03:15;;;;;;;39.08;25.52;;;;;;;5.70;100.00;101233.16;10557981;28;20051;-71
2022/11/14 08:08:15;;;;;;;34.67;23.92;;;;;;;6.02;100.00;101232.53;10538999;28;20401;-71
2022/11/14 08:13:16;;;;;;;34.60;22.38;;;;;;;6.42;100.00;101227.53;10541179;28;20036;-71
2022/11/14 08:18:16;;;;;;;28.13;20.92;;;;;;;6.72;100.00;101216.19;10555414;28;20032;-71
2022/11/14 08:23:17;;;;;;;27.17;17.90;;;;;;;7.09;100.00;101219.47;10538912;28;20048;-72
2022/11/14 08:28:17;;;;;;;19.13;16.70;;;;;;;7.09;100.00;101225.69;10557480;28;20028;-71
2022/11/14 08:33:17;;;;;;;21.23;15.23;;;;;;;7.22;100.00;101214.41;10539056;28;20400;-72
2022/11/14 08:38:18;;;;;;;31.92;15.65;;;;;;;7.46;100.00;101221.63;10539507;28;20494;-71
2022/11/14 08:43:18;;;;;;;20.17;16.05;;;;;;;7.82;100.00;101222.09;10539450;28;20069;-71
2022/11/14 08:48:19;;;;;;;22.58;17.05;;;;;;;8.01;100.00;101215.50;10539587;28;20089;-71
2022/11/14 08:53:19;;;;;;;22.15;15.20;;;;;;;8.13;100.00;101202.44;10540097;28;20047;-73
2022/11/14 08:58:19;;;;;;;22.00;16.30;;;;;;;8.38;100.00;101206.75;10538805;28;20040;-71
2022/11/14 09:03:20;;;;;;;24.42;16.38;;;;;;;8.65;100.00;101204.63;10540227;28;20043;-71
2022/11/14 09:08:20;;;;;;;26.92;14.60;;;;;;;8.95;100.00;101197.50;10540209;28;20032;-71
2022/11/14 09:13:21;;;;;;;29.40;14.07;;;;;;;9.19;100.00;101193.78;10554796;28;20517;-72
2022/11/14 09:18:21;;;;;;;16.83;12.88;;;;;;;9.38;100.00;101181.63;10554620;28;20043;-72
2022/11/14 09:23:22;;;;;;;17.92;12.80;;;;;;;8.68;100.00;101184.50;10538018;28;20381;-71
2022/11/14 09:28:23;;;;;;;20.23;13.15;;;;;;;8.55;100.00;101172.47;10538251;28;20471;-71
2022/11/14 09:33:23;;;;;;;13.55;12.13;;;;;;;9.02;100.00;101171.44;10538949;28;20063;-70
2022/11/14 09:38:23;;;;;;;16.70;13.40;;;;;;;9.51;100.00;101167.50;10537188;28;20360;-71
2022/11/14 09:43:56;;;;;;;16.23;12.65;;;;;;;9.89;100.00;101156.59;10541732;28;20060;-71
2022/11/14 09:48:56;;;;;;;19.83;12.60;;;;;;;9.98;100.00;101141.94;10544441;28;20020;-71
2022/11/14 09:54:20;;;;;;;20.33;13.13;;;;;;;10.09;100.00;101148.78;10560744;28;20028;-72
2022/11/14 09:59:20;;;;;;;16.25;13.85;;;;;;;10.40;100.00;101143.13;10544115;28;20034;-71
2022/11/14 10:04:43;;;;;;;17.83;11.88;;;;;;;10.35;95.98;101143.72;10543980;28;20038;-71
2022/11/14 10:09:58;;;;;;;16.30;10.77;;;;;;;10.56;98.86;101133.94;10560472;28;20058;-71
2022/11/14 10:15:05;;;;;;;14.93;12.45;;;;;;;10.32;92.50;101125.13;10560417;28;20123;-71
2022/11/14 10:20:33;;;;;;;14.85;11.07;;;;;;;10.70;96.52;101117.63;10560618;28;20064;-71
2022/11/14 10:25:45;;;;;;;13.30;10.30;;;;;;;10.83;89.08;101127.78;10544603;28;20020;-72
2022/11/14 10:31:01;;;;;;;13.98;10.35;;;;;;;11.26;93.53;101125.00;10544256;28;20039;-72
2022/11/14 10:36:20;;;;;;;18.60;11.38;;;;;;;11.14;88.41;101122.00;10544963;28;20048;-72
2022/11/14 10:41:20;;;;;;;13.73;10.93;;;;;;;11.17;89.26;101113.50;10544464;28;20040;-71
2022/11/14 10:46:36;;;;;;;15.07;10.48;;;;;;;11.33;83.14;101116.94;10525291;28;20032;-71
2022/11/14 10:51:49;;;;;;;14.70;12.60;;;;;;;11.21;83.60;101105.78;10541787;28;20043;-71
2022/11/14 10:56:50;;;;;;;14.38;11.65;;;;;;;11.10;82.49;101111.75;10541740;28;20103;-72
2022/11/14 11:01:55;;;;;;;11.82;10.63;;;;;;;10.65;83.04;101095.69;10541451;28;20431;-72
2022/11/14 11:07:05;;;;;;;14.18;11.50;;;;;;;10.28;85.88;101107.63;10543600;28;20031;-71
2022/11/14 11:12:06;;;;;;;12.13;10.90;;;;;;;10.06;89.88;101095.03;10542338;28;20379;-71
2022/11/14 11:17:14;;;;;;;25.92;10.80;;;;;;;10.50;87.52;101091.38;10540946;28;20028;-71
2022/11/14 11:22:35;;;;;;;18.10;14.02;;;;;;;10.93;85.47;101090.34;10543296;28;20088;-71
2022/11/14 11:27:35;;;;;;;20.25;13.45;;;;;;;11.13;86.83;101085.06;10523757;28;20384;-71
2022/11/14 11:32:36;;;;;;;19.35;12.48;;;;;;;11.61;89.04;101078.94;10541262;28;20059;-71
2022/11/14 11:37:40;;;;;;;31.13;16.80;;;;;;;12.05;87.96;101072.28;10559324;28;20027;-72
2022/11/14 11:43:05;;;;;;;22.33;16.45;;;;;;;12.09;89.11;101065.41;10540239;28;20036;-72
2022/11/14 11:48:12;;;;;;;23.48;15.02;;;;;;;12.34;89.91;101071.13;10540797;28;20059;-72
2022/11/14 11:53:23;;;;;;;27.23;14.85;;;;;;;12.53;90.73;101070.34;10557445;28;20156;-71
2022/11/14 11:58:43;;;;;;;20.70;13.77;;;;;;;12.61;86.88;101066.59;10541283;28;20141;-72
2022/11/14 12:03:46;;;;;;;23.98;15.50;;;;;;;12.21;83.62;101065.66;10540591;28;20081;-71
2022/11/14 12:09:26;;;;;;;20.88;14.43;;;;;;;12.30;86.44;101068.00;10537670;28;20035;-72
2022/11/14 12:14:33;;;;;;;27.98;14.45;;;;;;;12.52;86.22;101065.13;10537719;28;20040;-71
2022/11/14 12:19:36;;;;;;;;;;;;;;;12.65;85.65;101064.31;10556575;28;20024;-71
2022/11/14 12:25:29;;;;;;;16.02;12.93;;;;;;;12.65;87.53;101050.72;10555667;28;20374;-72
2022/11/14 12:30:29;;;;;;;14.73;11.77;;;;;;;12.81;87.81;101044.88;10481659;28;20136;-71
2022/11/14 12:35:34;;;;;;;16.13;12.10;;;;;;;12.66;86.55;101038.81;10521883;28;20049;-71
2022/11/14 12:40:36;;;;;;;15.13;11.90;;;;;;;12.53;85.23;101024.16;10538397;28;20123;-71
2022/11/14 12:45:39;;;;;;;19.80;11.63;;;;;;;11.93;86.36;101009.63;10538321;28;20467;-72
2022/11/14 12:50:41;;;;;;;21.40;13.00;;;;;;;11.85;88.99;100993.53;10539196;28;20174;-71
2022/11/14 12:55:44;;;;;;;17.48;12.40;;;;;;;11.99;90.25;100997.94;10537262;28;20044;-71
2022/11/14 13:00:44;;;;;;;15.77;12.13;;;;;;;11.54;88.61;100991.28;10538744;28;20024;-72
2022/11/14 13:06:02;;;;;;;26.02;13.85;;;;;;;11.11;89.15;100983.34;10538769;28;20437;-71
2022/11/14 13:22:41;;;;;;;14.60;13.13;;;;;;;10.63;91.30;100964.25;10546568;28;20468;-71
2022/11/14 13:27:42;;;;;;;20.13;14.43;;;;;;;10.47;91.92;100970.78;10528650;28;20532;-72
2022/11/14 13:32:43;;;;;;;23.10;14.32;;;;;;;10.27;93.02;100976.00;10544713;28;20056;-71
2022/11/14 13:37:59;;;;;;;20.65;14.48;;;;;;;10.24;93.84;100976.34;10546663;28;20399;-70
2022/11/14 13:43:09;;;;;;;14.82;13.05;;;;;;;10.15;94.89;100972.13;10546375;28;20032;-71
2022/11/14 13:48:47;;;;;;;23.77;16.75;;;;;;;10.05;95.08;100966.16;10545179;28;20036;-71
2022/11/14 13:53:47;;;;;;;16.35;14.48;;;;;;;10.09;95.26;100962.06;10545400;28;20020;-71
2022/11/14 13:58:47;;;;;;;31.38;14.77;;;;;;;9.96;96.16;100973.59;10562321;28;20456;-71
2022/11/14 14:04:07;;;;;;;17.58;14.20;;;;;;;9.88;96.81;100973.69;10544744;28;20447;-71
2022/11/14 14:09:16;;;;;;;20.95;15.70;;;;;;;9.81;97.15;100965.50;10544180;28;20048;-71
2022/11/14 14:14:31;;;;;;;29.88;15.98;;;;;;;9.79;97.11;100962.16;10561889;28;20035;-71
2022/11/14 14:19:54;;;;;;;19.48;14.70;;;;;;;9.83;96.78;100951.78;10544255;28;20024;-71
2022/11/14 14:25:01;;;;;;;17.42;15.15;;;;;;;9.99;97.93;100941.56;10560458;28;20348;-71
2022/11/14 14:30:12;;;;;;;21.03;16.13;;;;;;;9.93;98.04;100923.41;10542530;28;20066;-70
2022/11/14 14:35:26;;;;;;;19.35;14.88;;;;;;;9.80;97.50;100909.75;10525215;28;20727;-71
2022/11/14 14:40:29;;;;;;;23.42;15.55;;;;;;;9.81;97.08;100911.41;10559588;28;20118;-71
2022/11/14 14:45:29;;;;;;;18.70;15.82;;;;;;;9.66;97.92;100892.53;10544193;28;20066;-71
2022/11/14 14:50:36;;;;;;;21.98;16.67;;;;;;;9.61;97.81;100911.22;10543101;28;20444;-71
2022/11/14 14:55:36;;;;;;;21.13;15.27;;;;;;;9.60;98.36;100914.94;10544481;28;20114;-71
2022/11/14 15:00:37;;;;;;;19.42;16.60;;;;;;;9.54;98.41;100923.81;10542613;28;20127;-71
2022/11/14 15:05:37;;;;;;;23.60;16.75;;;;;;;9.46;98.01;100929.31;10542364;28;20059;-71
2022/11/14 15:10:38;;;;;;;23.15;16.52;;;;;;;9.33;97.82;100911.09;10542154;28;20051;-71
2022/11/14 15:15:38;;;;;;;24.17;15.35;;;;;;;9.24;97.96;100906.81;10540788;28;20081;-71
2022/11/14 15:20:38;;;;;;;20.40;15.40;;;;;;;9.15;98.27;100889.84;10541342;28;20064;-71
2022/11/14 15:25:39;;;;;;;20.95;17.15;;;;;;;9.02;99.08;100901.31;10541288;28;20036;-71
2022/11/14 15:30:39;;;;;;;19.73;16.83;;;;;;;8.98;98.78;100905.44;10543344;28;20040;-71
2022/11/14 15:35:39;;;;;;;23.67;16.90;;;;;;;8.81;99.59;100903.97;10542770;28;20071;-71
2022/11/14 15:40:40;;;;;;;26.95;18.67;;;;;;;8.74;99.46;100905.69;10539525;28;20040;-71
2022/11/14 15:45:40;;;;;;;22.67;16.80;;;;;;;8.59;100.00;100905.72;10541288;28;20119;-71
2022/11/14 15:50:41;;;;;;;23.45;17.08;;;;;;;8.43;100.00;100897.78;10542077;28;20044;-70
2022/11/14 15:55:41;;;;;;;25.55;18.23;;;;;;;8.27;100.00;100902.28;10557764;28;20424;-70
2022/11/14 16:00:49;;;;;;;29.48;19.00;;;;;;;8.12;100.00;100896.81;10541439;28;20040;-70
2022/11/14 16:05:50;;;;;;;22.27;18.17;;;;;;;7.99;100.00;100907.38;10557579;28;20107;-71
2022/11/14 16:10:50;;;;;;;24.88;19.25;;;;;;;7.79;100.00;100908.91;10555405;28;20035;-71
2022/11/14 16:15:50;;;;;;;19.77;17.63;;;;;;;7.75;100.00;100905.69;10541065;28;20090;-71
2022/11/14 16:20:51;;;;;;;35.55;18.55;;;;;;;7.64;100.00;100903.41;10539589;28;20043;-71
2022/11/14 16:25:51;;;;;;;23.85;16.55;;;;;;;7.51;100.00;100885.16;10540889;28;20044;-71
2022/11/14 16:30:52;;;;;;;26.25;16.23;;;;;;;7.31;100.00;100887.47;10541518;28;20534;-71
2022/11/14 16:35:52;;;;;;;21.23;17.60;;;;;;;7.19;100.00;100880.78;10540425;28;20407;-70
2022/11/14 16:40:52;;;;;;;27.95;21.85;;;;;;;7.01;100.00;100886.41;10539556;28;20039;-71
2022/11/14 16:45:53;;;;;;;31.73;23.45;;;;;;;6.90;100.00;100887.63;10538138;28;20040;-70
2022/11/14 16:50:53;;;;;;;33.80;25.00;;;;;;;6.78;100.00;100894.41;10538473;28;20063;-70
2022/11/14 16:55:54;;;;;;;34.03;24.40;;;;;;;6.63;100.00;100890.72;10547205;28;20036;-71
2022/11/14 17:00:54;;;;;;;37.92;29.40;;;;;;;6.50;100.00;100889.41;10546806;28;20039;-70
2022/11/14 17:05:55;;;;;;;46.03;31.10;;;;;;;6.34;100.00;100894.81;10548007;28;20032;-71
2022/11/14 17:10:55;;;;;;;42.15;31.40;;;;;;;6.24;100.00;100889.63;10563558;28;20029;-70
2022/11/14 17:15:59;;;;;;;37.63;27.95;;;;;;;6.14;100.00;100896.19;10563828;28;20118;-70
2022/11/14 17:21:03;;;;;;;47.20;34.05;;;;;;;6.08;100.00;100891.47;10545903;28;20146;-70
2022/11/14 17:26:05;;;;;;;49.42;32.88;;;;;;;5.97;100.00;100884.63;10547148;28;20036;-71
2022/11/14 17:31:08;;;;;;;48.85;31.95;;;;;;;5.88;100.00;100877.50;10562415;28;20032;-70
2022/11/14 17:36:09;;;;;;;48.47;30.95;;;;;;;5.77;100.00;100890.25;10544712;28;20052;-70
2022/11/14 17:41:09;;;;;;;49.78;32.33;;;;;;;5.71;100.00;100887.38;10563320;28;20036;-70
2022/11/14 17:46:10;;;;;;;42.50;32.97;;;;;;;5.65;100.00;100896.97;10545690;28;20032;-70
2022/11/14 17:51:12;;;;;;;41.47;29.73;;;;;;;5.63;100.00;100903.50;10545912;28;20036;-70
2022/11/14 17:56:17;;;;;;;48.72;32.28;;;;;;;5.64;100.00;100897.97;10546040;28;20024;-71
2022/11/14 18:01:28;;;;;;;40.05;29.67;;;;;;;5.76;100.00;100903.88;10527377;28;20432;-70
2022/11/14 18:06:29;;;;;;;39.67;28.10;;;;;;;5.79;100.00;100899.00;10544872;28;20073;-71
2022/11/14 18:11:29;;;;;;;29.20;20.98;;;;;;;5.78;100.00;100899.19;10545266;28;20180;-70
2022/11/14 18:16:30;;;;;;;36.75;20.13;;;;;;;5.85;100.00;100889.44;10560991;28;20020;-70
2022/11/14 18:21:30;;;;;;;26.75;21.42;;;;;;;5.82;100.00;100893.28;10543642;28;20081;-70
2022/11/14 18:26:30;;;;;;;33.13;23.17;;;;;;;5.80;100.00;100881.84;10542962;28;20044;-71
2022/11/14 18:31:31;;;;;;;31.42;20.13;;;;;;;5.76;100.00;100893.13;10544111;28;20050;-70
2022/11/14 18:36:31;;;;;;;32.15;24.73;;;;;;;5.81;100.00;100894.31;10543564;28;20074;-70
2022/11/14 18:41:32;;;;;;;38.13;25.25;;;;;;;5.88;100.00;100890.94;10544784;28;20032;-70
2022/11/14 18:46:32;;;;;;;39.45;27.35;;;;;;;5.81;100.00;100883.56;10544320;28;20032;-70
2022/11/14 18:51:40;;;;;;;42.72;29.63;;;;;;;5.74;100.00;100893.31;10542215;28;20040;-70
2022/11/14 18:56:41;;;;;;;44.60;29.48;;;;;;;5.68;100.00;100893.97;10557806;28;20406;-70
2022/11/14 19:01:41;;;;;;;46.65;27.58;;;;;;;5.42;100.00;100888.69;10543580;28;20024;-70
2022/11/14 19:06:42;;;;;;;39.47;28.92;;;;;;;5.32;100.00;100890.69;10543582;28;20040;-70
2022/11/14 19:17:03;;;;;;;44.75;30.58;;;;;;;5.35;100.00;100893.88;10541184;28;20035;-70
2022/11/14 19:22:03;;;;;;;50.30;31.80;;;;;;;5.40;100.00;100884.50;10543136;28;20067;-70
2022/11/14 19:27:04;;;;;;;49.72;33.00;;;;;;;5.47;100.00;100898.94;10541270;28;20067;-70
2022/11/14 19:32:04;;;;;;;56.65;34.10;;;;;;;5.58;100.00;100885.19;10542195;28;20384;-70
2022/11/14 19:37:05;;;;;;;50.95;36.00;;;;;;;5.70;100.00;100877.66;10541430;28;20051;-70
2022/11/14 19:42:05;;;;;;;56.55;36.03;;;;;;;5.74;100.00;100882.56;10541478;28;20476;-72
2022/11/14 19:47:06;;;;;;;57.20;38.95;;;;;;;5.82;100.00;100866.41;10541290;28;20036;-74
2022/11/14 19:52:06;;;;;;;56.78;37.42;;;;;;;5.94;100.00;100875.03;10539814;28;20036;-71
2022/11/14 19:57:06;;;;;;;61.45;39.95;;;;;;;5.97;100.00;100876.53;10538964;28;20560;-71
2022/11/14 20:02:11;;;;;;;60.20;37.90;;;;;;;5.99;100.00;100872.66;10541415;28;20036;-71
2022/11/14 20:07:11;;;;;;;58.13;35.83;;;;;;;6.01;100.00;100857.22;10557094;28;20124;-71
2022/11/14 20:12:12;;;;;;;45.75;34.00;;;;;;;6.01;100.00;100869.81;10540740;28;20434;-71
2022/11/14 20:17:12;;;;;;;52.50;35.47;;;;;;;6.04;100.00;100862.25;10539600;28;20081;-70
2022/11/14 20:22:12;;;;;;;50.45;33.20;;;;;;;6.18;100.00;100854.50;10523076;28;20032;-71
2022/11/14 20:27:13;;;;;;;47.55;32.45;;;;;;;6.16;100.00;100845.75;10539142;28;20028;-72
2022/11/14 20:32:13;;;;;;;69.70;34.00;;;;;;;6.21;100.00;100844.25;10541015;28;20024;-69
2022/11/14 20:37:14;;;;;;;42.83;29.45;;;;;;;6.27;100.00;100830.13;10541310;28;20052;-70
2022/11/14 20:42:14;;;;;;;54.40;32.47;;;;;;;6.27;100.00;100824.75;10540215;28;20131;-70
2022/11/14 20:47:16;;;;;;;43.58;30.35;;;;;;;6.27;100.00;100835.50;10541427;28;20361;-70
2022/11/14 20:52:17;;;;;;;47.80;32.58;;;;;;;6.27;100.00;100832.81;10538689;28;20137;-70
2022/11/14 20:57:17;;;;;;;61.00;34.42;;;;;;;6.27;100.00;100838.19;10539684;28;20028;-71
2022/11/14 21:02:18;;;;;;;65.07;35.80;;;;;;;6.32;100.00;100828.75;10556325;28;20486;-69
2022/11/14 21:07:18;;;;;;;51.53;36.08;;;;;;;6.27;100.00;100829.28;10539580;28;20115;-71
2022/11/14 21:12:19;;;;;;;67.50;37.00;;;;;;;6.32;100.00;100831.44;10540352;28;20040;-71
2022/11/14 21:17:19;;;;;;;52.17;33.20;;;;;;;6.40;100.00;100823.38;10539878;28;20036;-71
2022/11/14 21:22:19;;;;;;;58.63;33.55;;;;;;;6.42;100.00;100829.44;10538706;28;20044;-71
2022/11/14 21:27:20;;;;;;;49.00;31.33;;;;;;;6.43;100.00;100831.09;10540327;28;20120;-70
2022/11/14 21:32:20;;;;;;;58.92;34.75;;;;;;;6.49;100.00;100825.03;10541146;28;20039;-70
2022/11/14 21:37:21;;;;;;;55.53;34.83;;;;;;;6.53;100.00;100831.75;10540263;28;20441;-70
2022/11/14 21:42:21;;;;;;;66.60;36.95;;;;;;;6.57;100.00;100833.06;10546708;28;20045;-71
2022/11/14 21:47:21;;;;;;;57.50;34.25;;;;;;;6.57;100.00;100830.38;10562604;28;20403;-70
2022/11/14 21:52:22;;;;;;;53.45;35.10;;;;;;;6.61;100.00;100826.34;10546553;28;20036;-71
2022/11/14 21:57:22;;;;;;;59.35;34.63;;;;;;;6.65;100.00;100830.34;10547840;28;20149;-70
2022/11/14 22:07:42;;;;;;;53.13;34.00;;;;;;;6.72;100.00;100819.72;10546146;28;20525;-72
2022/11/14 22:12:42;;;;;;;61.95;34.53;;;;;;;6.78;100.00;100800.19;10528735;28;20036;-71
2022/11/14 22:17:42;;;;;;;62.53;35.35;;;;;;;6.82;100.00;100787.22;10545518;28;20059;-71
2022/11/14 22:22:43;;;;;;;70.70;38.13;;;;;;;6.83;100.00;100775.44;10545563;28;20040;-71
2022/11/14 22:27:43;;;;;;;63.17;36.63;;;;;;;6.81;100.00;100782.88;10560028;28;20040;-71
2022/11/14 22:32:44;;;;;;;61.03;34.10;;;;;;;6.81;100.00;100764.03;10543905;28;20024;-71
2022/11/14 22:37:44;;;;;;;57.70;34.03;;;;;;;6.85;100.00;100776.94;10559764;28;20052;-71
2022/11/14 22:42:44;;;;;;;58.78;33.42;;;;;;;6.88;100.00;100783.84;10544142;28;20060;-69
2022/11/14 22:47:45;;;;;;;68.07;31.88;;;;;;;6.89;100.00;100766.66;10467334;28;20364;-70
2022/11/14 22:52:45;;;;;;;59.15;30.98;;;;;;;6.89;100.00;100774.72;10543934;28;20036;-70
2022/11/14 22:57:45;;;;;;;62.35;32.42;;;;;;;6.87;100.00;100768.72;10543914;28;20111;-71
2022/11/14 23:02:46;;;;;;;75.82;35.97;;;;;;;6.88;100.00;100760.44;10559220;28;20036;-71